Time;durP1;ratioP1;P1;durP2;ratioP2;P2;SDS_P1;SDS_P2;PMS_P1;PMS_P2;Temp;Humidity;BMP_temperature;BMP_pressure;BME280_temperature;BME280_humidity;BME280_pressure;Samples;Min_cycle;Max_cycle;Signal;HPM_P1;HPM_P2
2023/05/27 00:01:50;;;;;;;12.33;9.50;;;14.10;94.00;;;;;;5072215;28;20440;-74
2023/05/27 00:04:18;;;;;;;12.80;8.93;;;14.10;94.40;;;;;;5071486;28;20489;-74
2023/05/27 00:06:45;;;;;;;14.80;10.30;;;14.10;94.40;;;;;;5071868;28;20446;-74
2023/05/27 00:09:13;;;;;;;13.00;8.83;;;14.10;94.20;;;;;;5072438;28;20436;-74
2023/05/27 00:11:41;;;;;;;15.63;8.93;;;14.00;94.20;;;;;;5071599;28;20499;-73
2023/05/27 00:14:08;;;;;;;12.00;9.67;;;14.00;94.20;;;;;;5072023;28;20957;-72
2023/05/27 00:16:36;;;;;;;12.50;8.20;;;14.00;94.20;;;;;;5072162;28;20513;-75
2023/05/27 00:19:05;;;;;;;11.70;9.23;;;14.00;94.40;;;;;;5072966;28;20468;-75
2023/05/27 00:21:33;;;;;;;10.60;9.10;;;13.90;94.40;;;;;;5072038;28;20444;-75
2023/05/27 00:24:03;;;;;;;12.27;8.50;;;13.90;94.40;;;;;;5073085;28;21001;-75
2023/05/27 00:26:33;;;;;;;9.00;8.10;;;13.90;94.70;;;;;;5073085;28;20927;-75
2023/05/27 00:29:00;;;;;;;9.70;8.57;;;13.80;95.00;;;;;;5073804;28;20436;-75
2023/05/27 00:31:27;;;;;;;12.77;9.03;;;13.80;94.90;;;;;;5073467;28;20481;-75
2023/05/27 00:33:54;;;;;;;11.27;9.00;;;13.80;94.60;;;;;;5073754;28;20444;-75
2023/05/27 00:36:22;;;;;;;10.90;9.50;;;13.80;94.80;;;;;;5073263;28;20436;-76
2023/05/27 00:38:49;;;;;;;11.70;8.40;;;13.70;95.20;;;;;;5073821;28;20478;-74
2023/05/27 00:41:16;;;;;;;13.23;10.00;;;13.70;95.20;;;;;;5073488;28;20478;-75
2023/05/27 00:43:44;;;;;;;13.53;10.23;;;13.60;95.60;;;;;;5073714;28;20440;-74
2023/05/27 00:46:11;;;;;;;14.27;10.20;;;13.60;96.10;;;;;;5073427;28;20468;-75
2023/05/27 00:48:38;;;;;;;13.97;10.40;;;13.60;96.60;;;;;;5073599;28;20787;-74
2023/05/27 00:51:05;;;;;;;13.53;9.70;;;13.60;96.90;;;;;;5073588;28;20436;-75
2023/05/27 00:53:41;;;;;;;12.10;9.20;;;13.60;96.70;;;;;;5073438;28;20432;-75
2023/05/27 00:56:09;;;;;;;16.13;9.90;;;13.70;96.40;;;;;;5073245;28;20451;-75
2023/05/27 00:58:37;;;;;;;12.50;9.07;;;13.60;96.40;;;;;;5073424;28;20463;-75
2023/05/27 01:01:04;;;;;;;13.63;10.30;;;13.60;96.70;;;;;;5075913;28;20439;-75
2023/05/27 01:03:34;;;;;;;12.80;9.87;;;13.60;96.60;;;;;;5077402;28;20428;-75
2023/05/27 01:06:12;;;;;;;12.93;9.93;;;13.60;96.80;;;;;;5077278;28;20464;-75
2023/05/27 01:08:48;;;;;;;15.80;10.57;;;13.60;96.60;;;;;;5077627;28;20435;-76
2023/05/27 01:11:23;;;;;;;14.20;11.00;;;13.60;96.70;;;;;;5076510;28;20443;-75
2023/05/27 01:13:56;;;;;;;12.77;9.77;;;13.60;96.60;;;;;;5077362;28;20435;-76
2023/05/27 01:16:25;;;;;;;12.87;9.87;;;13.60;96.10;;;;;;5077107;28;20456;-75
2023/05/27 01:18:59;;;;;;;17.63;10.70;;;13.50;96.10;;;;;;5077679;28;20904;-75
2023/05/27 01:21:29;;;;;;;12.03;8.50;;;13.50;95.80;;;;;;5076888;28;20440;-75
2023/05/27 01:24:04;;;;;;;10.23;8.13;;;13.50;95.60;;;;;;5076850;28;20432;-75
2023/05/27 01:26:31;;;;;;;9.90;8.23;;;13.40;95.40;;;;;;5076804;28;20493;-75
2023/05/27 01:28:58;;;;;;;10.70;9.13;;;13.30;95.50;;;;;;5077248;28;20448;-76
2023/05/27 01:31:29;;;;;;;12.30;8.00;;;13.30;95.80;;;;;;5076342;28;20856;-75
2023/05/27 01:34:01;;;;;;;13.13;9.77;;;13.30;96.40;;;;;;5078032;28;20460;-76
2023/05/27 01:36:32;;;;;;;13.30;9.53;;;13.30;96.70;;;;;;5076825;28;20439;-76
2023/05/27 01:39:03;;;;;;;9.70;7.53;;;13.30;96.70;;;;;;5077116;28;20938;-76
2023/05/27 01:41:36;;;;;;;12.47;9.30;;;13.20;96.50;;;;;;5077443;28;20986;-75
2023/05/27 01:44:07;;;;;;;10.67;8.83;;;13.20;96.40;;;;;;5076685;28;20444;-75
2023/05/27 01:46:35;;;;;;;16.57;9.50;;;13.20;96.50;;;;;;5076610;28;20486;-75
2023/05/27 01:49:07;;;;;;;13.23;9.90;;;13.20;96.50;;;;;;5075810;28;20432;-75
2023/05/27 01:51:34;;;;;;;10.50;8.90;;;13.10;96.60;;;;;;5076956;28;20436;-74
2023/05/27 01:54:03;;;;;;;11.63;9.37;;;13.10;96.70;;;;;;5076289;28;20535;-74
2023/05/27 01:56:30;;;;;;;11.90;9.30;;;13.10;96.90;;;;;;5075586;28;20903;-75
2023/05/27 01:58:57;;;;;;;12.35;9.98;;;13.00;97.10;;;;;;5076233;28;20493;-75
2023/05/27 02:01:25;;;;;;;13.40;9.57;;;13.00;97.30;;;;;;5076648;28;20674;-75
2023/05/27 02:03:52;;;;;;;14.07;9.90;;;13.00;97.30;;;;;;5075843;28;20447;-75
2023/05/27 02:06:19;;;;;;;10.20;8.43;;;12.90;97.30;;;;;;5076372;28;20443;-75
2023/05/27 02:08:46;;;;;;;10.90;8.60;;;12.90;97.30;;;;;;5075837;28;20436;-75
2023/05/27 02:11:15;;;;;;;11.33;9.73;;;12.90;97.40;;;;;;5076147;28;20436;-74
2023/05/27 02:13:42;;;;;;;14.27;9.10;;;12.80;97.60;;;;;;5076734;28;20432;-75
2023/05/27 02:16:09;;;;;;;13.70;9.80;;;12.80;97.70;;;;;;5076842;28;20440;-74
2023/05/27 02:18:36;;;;;;;15.63;9.23;;;12.80;97.90;;;;;;5077071;28;20535;-76
2023/05/27 02:21:05;;;;;;;11.90;9.10;;;12.70;97.80;;;;;;5076967;28;20436;-75
2023/05/27 02:23:33;;;;;;;12.20;9.37;;;12.70;97.70;;;;;;5076079;28;20856;-75
2023/05/27 02:26:00;;;;;;;11.13;9.30;;;12.70;97.60;;;;;;5076052;28;20840;-75
2023/05/27 02:28:29;;;;;;;13.00;10.17;;;12.60;97.40;;;;;;5076200;28;20466;-76
2023/05/27 02:30:56;;;;;;;14.30;10.17;;;12.60;97.40;;;;;;5076105;28;20448;-76
2023/05/27 02:33:23;;;;;;;18.25;9.48;;;12.60;97.30;;;;;;5075263;28;20444;-77
2023/05/27 02:35:50;;;;;;;11.90;10.20;;;12.50;97.50;;;;;;5075855;28;20189;-74
2023/05/27 02:38:17;;;;;;;17.20;10.33;;;12.50;97.40;;;;;;5075110;28;20718;-75
2023/05/27 02:40:44;;;;;;;10.13;8.80;;;12.50;97.50;;;;;;5076121;28;20752;-74
2023/05/27 02:43:12;;;;;;;12.73;9.37;;;12.50;97.60;;;;;;5075320;28;20196;-75
2023/05/27 02:45:40;;;;;;;12.13;10.25;;;12.50;97.70;;;;;;5076276;28;20468;-74
2023/05/27 02:48:07;;;;;;;11.45;10.25;;;12.50;97.70;;;;;;5075612;28;20267;-75
2023/05/27 02:50:35;;;;;;;18.50;10.60;;;12.40;97.50;;;;;;5076056;28;20190;-76
2023/05/27 02:53:02;;;;;;;10.33;8.03;;;12.40;97.60;;;;;;5075199;28;20450;-75
2023/05/27 02:55:31;;;;;;;10.40;8.10;;;12.40;97.50;;;;;;5076049;28;20497;-75
2023/05/27 02:58:00;;;;;;;10.27;8.40;;;12.30;97.40;;;;;;5075497;28;20216;-75
2023/05/27 03:00:27;;;;;;;14.00;8.30;;;12.30;97.50;;;;;;5076515;28;20486;-76
2023/05/27 03:02:56;;;;;;;10.60;7.60;;;12.30;97.50;;;;;;5075649;28;20443;-75
2023/05/27 03:05:23;;;;;;;12.10;8.93;;;12.30;97.60;;;;;;5075919;28;20476;-75
2023/05/27 03:07:50;;;;;;;17.58;9.05;;;12.20;97.60;;;;;;5075940;28;20481;-74
2023/05/27 03:10:17;;;;;;;9.77;8.77;;;12.20;97.70;;;;;;5075506;28;20227;-75
2023/05/27 03:12:44;;;;;;;16.20;11.40;;;12.20;97.60;;;;;;5074065;28;20481;-76
2023/05/27 03:15:12;;;;;;;16.25;10.75;;;12.20;97.70;;;;;;5076033;28;20193;-74
2023/05/27 03:17:39;;;;;;;16.38;12.00;;;12.10;97.80;;;;;;5076206;28;20218;-75
2023/05/27 03:20:12;;;;;;;14.98;11.52;;;12.10;97.70;;;;;;5076104;28;20232;-75
2023/05/27 03:22:40;;;;;;;14.80;10.63;;;12.10;98.00;;;;;;5074317;28;20192;-75
2023/05/27 03:25:08;;;;;;;15.27;12.80;;;12.10;98.00;;;;;;5074996;28;20279;-75
2023/05/27 03:27:36;;;;;;;15.32;12.38;;;12.10;97.90;;;;;;5074373;28;20188;-75
2023/05/27 03:30:04;;;;;;;16.33;12.93;;;12.00;98.40;;;;;;5075617;28;20715;-75
2023/05/27 03:32:31;;;;;;;18.08;13.73;;;12.00;98.80;;;;;;5075479;28;20649;-75
2023/05/27 03:35:03;;;;;;;12.90;11.50;;;12.00;98.80;;;;;;5075646;28;20220;-76
2023/05/27 03:37:31;;;;;;;15.10;13.50;;;12.00;98.90;;;;;;5074889;28;20189;-75
2023/05/27 03:39:59;;;;;;;15.73;12.13;;;12.00;98.90;;;;;;5075433;28;20197;-76
2023/05/27 03:42:29;;;;;;;16.35;12.10;;;12.00;98.60;;;;;;5075211;28;20221;-75
2023/05/27 03:44:56;;;;;;;16.48;11.40;;;12.00;98.50;;;;;;5075552;28;20217;-75
2023/05/27 03:47:23;;;;;;;13.80;10.63;;;11.90;98.60;;;;;;5075523;28;20186;-75
2023/05/27 03:49:50;;;;;;;14.02;9.82;;;12.00;98.70;;;;;;5075693;28;20194;-75
2023/05/27 03:52:17;;;;;;;12.57;9.35;;;12.00;98.90;;;;;;5074440;28;20185;-77
2023/05/27 03:54:46;;;;;;;12.55;9.25;;;12.00;98.70;;;;;;5075589;28;20537;-74
2023/05/27 03:57:13;;;;;;;10.40;7.97;;;12.00;98.20;;;;;;5074721;28;20650;-74
2023/05/27 03:59:42;;;;;;;12.60;9.10;;;12.00;97.90;;;;;;5075343;28;20817;-76
2023/05/27 04:02:09;;;;;;;11.13;9.20;;;12.00;97.80;;;;;;5075219;28;20213;-75
2023/05/27 04:04:36;;;;;;;9.85;8.50;;;12.00;97.80;;;;;;5075109;28;20971;-75
2023/05/27 04:07:04;;;;;;;12.15;9.02;;;12.00;97.70;;;;;;5075732;28;20197;-75
2023/05/27 04:09:31;;;;;;;10.32;8.30;;;11.90;98.00;;;;;;5074409;28;20198;-75
2023/05/27 04:12:00;;;;;;;11.40;8.25;;;11.90;98.00;;;;;;5074100;28;20560;-75
2023/05/27 04:14:27;;;;;;;10.23;8.18;;;11.90;97.90;;;;;;5073736;28;20208;-75
2023/05/27 04:16:54;;;;;;;10.32;8.52;;;11.90;98.10;;;;;;5073920;28;20225;-75
2023/05/27 04:19:22;;;;;;;8.77;7.45;;;11.90;98.00;;;;;;5074779;28;20186;-75
2023/05/27 04:21:49;;;;;;;11.10;7.55;;;12.00;98.00;;;;;;5074372;28;20217;-76
2023/05/27 04:24:16;;;;;;;11.20;8.90;;;12.00;98.00;;;;;;5074034;28;20205;-75
2023/05/27 04:26:43;;;;;;;11.50;10.18;;;12.00;98.00;;;;;;5073925;28;20483;-75
2023/05/27 04:29:11;;;;;;;14.40;11.40;;;12.10;98.10;;;;;;5073598;28;20212;-76
2023/05/27 04:31:39;;;;;;;13.10;10.10;;;12.20;98.40;;;;;;5073653;28;20493;-75
2023/05/27 04:34:07;;;;;;;10.83;9.53;;;12.20;98.40;;;;;;5075792;28;20443;-76
2023/05/27 04:36:34;;;;;;;15.90;11.68;;;12.30;98.30;;;;;;5077925;28;20526;-75
2023/05/27 04:39:02;;;;;;;13.20;11.13;;;12.30;98.30;;;;;;5078246;28;20235;-76
2023/05/27 04:41:29;;;;;;;13.65;10.55;;;12.30;98.30;;;;;;5077865;28;20514;-75
2023/05/27 04:44:00;;;;;;;11.83;9.70;;;12.30;98.30;;;;;;5077650;28;20185;-75
2023/05/27 04:46:29;;;;;;;12.60;9.90;;;12.40;98.50;;;;;;5077860;28;20847;-75
2023/05/27 04:48:56;;;;;;;16.50;11.50;;;12.50;98.50;;;;;;5077912;28;20432;-75
2023/05/27 04:51:23;;;;;;;13.93;11.10;;;12.50;98.60;;;;;;5077147;28;20436;-75
2023/05/27 04:53:50;;;;;;;14.65;11.30;;;12.50;98.80;;;;;;5078080;28;20938;-75
2023/05/27 04:56:18;;;;;;;11.87;9.93;;;12.60;99.20;;;;;;5077673;28;20182;-75
2023/05/27 04:58:48;;;;;;;11.97;10.63;;;12.70;99.30;;;;;;5078445;28;20440;-75
2023/05/27 05:01:18;;;;;;;14.20;11.17;;;12.80;99.50;;;;;;5078266;28;20438;-75
2023/05/27 05:03:52;;;;;;;14.63;10.63;;;12.90;99.40;;;;;;5078690;28;20432;-75
2023/05/27 05:06:22;;;;;;;11.17;9.73;;;13.00;99.30;;;;;;5078277;28;20511;-75
2023/05/27 05:08:49;;;;;;;12.50;9.60;;;13.10;99.50;;;;;;5077382;28;20471;-74
2023/05/27 05:11:16;;;;;;;17.43;11.00;;;13.20;99.60;;;;;;5058097;28;20811;-75
2023/05/27 05:13:43;;;;;;;16.03;10.30;;;13.30;99.40;;;;;;5057008;28;20441;-74
2023/05/27 05:16:11;;;;;;;12.27;9.70;;;13.40;99.30;;;;;;5057818;28;20498;-75
2023/05/27 05:18:38;;;;;;;11.67;9.80;;;13.50;99.30;;;;;;5058578;28;20425;-76
2023/05/27 05:21:06;;;;;;;12.50;9.43;;;13.60;99.10;;;;;;5076525;28;20470;-75
2023/05/27 05:23:33;;;;;;;11.53;10.03;;;13.70;99.10;;;;;;5078589;28;20485;-76
2023/05/27 05:26:06;;;;;;;12.17;9.60;;;13.80;99.00;;;;;;5076029;28;20533;-75
2023/05/27 05:28:34;;;;;;;14.60;11.50;;;13.80;99.10;;;;;;5077541;28;20472;-76
2023/05/27 05:31:01;;;;;;;12.73;9.00;;;14.00;99.30;;;;;;5077305;28;20440;-76
2023/05/27 05:33:30;;;;;;;13.40;10.27;;;14.20;99.30;;;;;;5077803;28;20443;-76
2023/05/27 05:35:57;;;;;;;12.30;9.67;;;14.30;99.10;;;;;;5076760;28;20440;-74
2023/05/27 05:38:25;;;;;;;12.40;9.17;;;14.40;98.20;;;;;;5077163;28;20432;-74
2023/05/27 05:40:54;;;;;;;15.07;9.53;;;14.50;97.90;;;;;;5077217;28;20431;-74
2023/05/27 05:43:21;;;;;;;13.83;11.37;;;14.60;98.00;;;;;;5076651;28;20467;-75
2023/05/27 05:45:48;;;;;;;11.70;8.87;;;14.70;97.70;;;;;;5077126;28;20558;-74
2023/05/27 05:48:15;;;;;;;14.10;9.50;;;14.90;97.30;;;;;;5077059;28;20455;-74
2023/05/27 05:50:42;;;;;;;15.53;9.93;;;15.00;97.20;;;;;;5078013;28;20432;-76
2023/05/27 05:53:10;;;;;;;13.57;9.87;;;15.10;97.10;;;;;;5062707;28;20915;-75
2023/05/27 05:55:39;;;;;;;13.00;8.43;;;15.20;96.90;;;;;;5070265;28;20432;-75
2023/05/27 05:58:06;;;;;;;12.97;9.40;;;15.30;96.60;;;;;;5057462;28;20518;-75
2023/05/27 06:00:33;;;;;;;11.50;9.33;;;15.50;96.60;;;;;;5072633;28;20870;-75
2023/05/27 06:03:00;;;;;;;12.70;10.03;;;15.60;96.50;;;;;;5074247;28;20447;-75
2023/05/27 06:05:29;;;;;;;15.90;10.50;;;15.80;96.20;;;;;;5056522;28;20472;-75
2023/05/27 06:07:56;;;;;;;11.93;8.67;;;15.90;95.90;;;;;;5070948;28;20444;-75
2023/05/27 06:10:23;;;;;;;16.30;10.10;;;16.00;95.70;;;;;;5074893;28;20462;-75
2023/05/27 06:12:51;;;;;;;13.80;9.27;;;16.20;95.50;;;;;;5073411;28;20436;-75
2023/05/27 06:15:18;;;;;;;11.43;8.87;;;16.30;95.10;;;;;;5075310;28;20433;-77
2023/05/27 06:17:47;;;;;;;11.90;8.63;;;16.40;94.50;;;;;;5071506;28;20476;-76
2023/05/27 06:20:16;;;;;;;11.97;9.20;;;16.50;94.30;;;;;;5074909;28;20840;-76
2023/05/27 06:22:43;;;;;;;10.53;8.13;;;16.70;93.80;;;;;;5074208;28;20452;-76
2023/05/27 06:25:10;;;;;;;13.73;8.53;;;16.80;93.40;;;;;;5075022;28;20440;-76
2023/05/27 06:27:43;;;;;;;14.97;9.37;;;16.90;93.00;;;;;;5074571;28;20528;-76
2023/05/27 06:30:12;;;;;;;16.03;9.60;;;17.00;92.40;;;;;;5055983;28;20554;-76
2023/05/27 06:32:39;;;;;;;11.63;8.70;;;17.20;92.20;;;;;;5055756;28;20473;-76
2023/05/27 06:35:07;;;;;;;10.93;8.00;;;17.30;92.10;;;;;;5057759;28;20805;-74
2023/05/27 06:37:34;;;;;;;18.93;9.17;;;17.40;91.10;;;;;;5071288;28;20520;-76
2023/05/27 06:40:01;;;;;;;11.97;8.40;;;17.50;90.30;;;;;;5072964;28;20432;-76
2023/05/27 06:42:29;;;;;;;15.17;8.13;;;17.70;90.20;;;;;;5070100;28;20458;-76
2023/05/27 06:44:56;;;;;;;19.13;8.23;;;17.80;88.60;;;;;;5054746;28;20437;-77
2023/05/27 06:47:24;;;;;;;13.10;8.20;;;17.90;87.50;;;;;;5062057;28;20480;-74
2023/05/27 06:49:56;;;;;;;14.23;8.10;;;18.00;85.90;;;;;;5054391;28;20479;-77
2023/05/27 06:52:24;;;;;;;10.57;8.00;;;18.00;84.10;;;;;;5054688;28;20437;-76
2023/05/27 06:54:51;;;;;;;13.20;8.50;;;18.10;83.30;;;;;;5054897;28;20433;-75
2023/05/27 06:57:17;;;;;;;11.47;8.40;;;18.10;83.70;;;;;;5069602;28;20428;-75
2023/05/27 06:59:46;;;;;;;14.60;8.97;;;18.30;83.90;;;;;;5072434;28;20436;-74
2023/05/27 07:02:17;;;;;;;19.47;9.20;;;18.40;83.50;;;;;;5072740;28;20850;-75
2023/05/27 07:04:46;;;;;;;12.40;8.20;;;18.50;82.00;;;;;;5071835;28;20468;-76
2023/05/27 07:07:12;;;;;;;10.60;8.20;;;18.50;78.60;;;;;;5072588;28;20500;-74
2023/05/27 07:09:39;;;;;;;10.87;8.10;;;18.60;79.70;;;;;;5072430;28;20505;-75
2023/05/27 07:12:07;;;;;;;11.30;7.87;;;18.70;81.10;;;;;;5070439;28;20428;-76
2023/05/27 07:14:34;;;;;;;10.73;7.53;;;18.90;80.40;;;;;;5054429;28;20440;-75
2023/05/27 07:17:01;;;;;;;12.77;8.27;;;18.90;79.10;;;;;;5067902;28;20502;-76
2023/05/27 07:19:31;;;;;;;14.43;8.00;;;19.10;79.20;;;;;;5062976;28;20444;-76
2023/05/27 07:21:59;;;;;;;10.13;7.87;;;19.20;77.60;;;;;;5070603;28;20926;-76
2023/05/27 07:24:26;;;;;;;13.97;8.30;;;19.40;77.90;;;;;;5065020;28;20432;-78
2023/05/27 07:26:56;;;;;;;13.43;8.20;;;19.50;77.50;;;;;;5056649;28;21050;-76
2023/05/27 07:29:23;;;;;;;11.43;7.60;;;19.70;75.70;;;;;;5070883;28;20444;-77
2023/05/27 07:31:50;;;;;;;12.73;7.23;;;19.80;75.00;;;;;;5053379;28;20477;-77
2023/05/27 07:34:17;;;;;;;9.90;6.63;;;19.90;72.80;;;;;;5056410;28;20479;-78
2023/05/27 07:36:45;;;;;;;10.27;6.77;;;19.90;73.20;;;;;;5057144;28;20473;-77
2023/05/27 07:39:14;;;;;;;13.17;8.13;;;20.00;73.60;;;;;;5059102;28;20443;-75
2023/05/27 07:41:41;;;;;;;10.43;6.97;;;20.20;72.00;;;;;;5066472;28;20428;-77
2023/05/27 07:44:08;;;;;;;7.47;6.17;;;20.30;70.70;;;;;;5070571;28;20463;-75
2023/05/27 07:46:38;;;;;;;17.50;8.47;;;20.40;70.90;;;;;;5070301;28;20566;-77
2023/05/27 07:49:05;;;;;;;10.77;6.73;;;20.60;71.50;;;;;;5069649;28;20820;-77
2023/05/27 07:51:32;;;;;;;11.53;7.57;;;20.60;68.80;;;;;;5066968;28;20468;-77
2023/05/27 07:53:59;;;;;;;10.57;7.20;;;20.80;67.30;;;;;;5070784;28;20523;-78
2023/05/27 07:56:30;;;;;;;9.47;7.20;;;21.00;65.60;;;;;;5069577;28;20475;-77
2023/05/27 07:58:56;;;;;;;13.00;6.90;;;21.00;65.10;;;;;;5070171;28;20437;-76
2023/05/27 08:01:24;;;;;;;11.90;6.80;;;21.00;65.00;;;;;;5070201;28;20487;-78
2023/05/27 08:03:52;;;;;;;10.80;6.70;;;21.10;67.80;;;;;;5070519;28;20501;-77
2023/05/27 08:06:19;;;;;;;9.80;6.37;;;21.20;66.70;;;;;;5061634;28;20480;-77
2023/05/27 08:08:47;;;;;;;8.77;6.50;;;21.40;66.20;;;;;;5052339;28;20437;-79
2023/05/27 08:11:14;;;;;;;13.73;7.30;;;21.60;65.40;;;;;;5060265;28;20435;-80
2023/05/27 08:13:44;;;;;;;12.37;6.23;;;21.70;62.00;;;;;;5070468;28;20494;-77
2023/05/27 08:16:15;;;;;;;13.13;6.50;;;21.70;61.90;;;;;;5069797;28;20440;-78
2023/05/27 08:18:44;;;;;;;13.80;6.47;;;21.80;62.40;;;;;;5055708;28;20537;-77
2023/05/27 08:21:11;;;;;;;10.93;7.17;;;21.90;62.20;;;;;;5056306;28;20464;-79
2023/05/27 08:23:45;;;;;;;8.83;6.23;;;22.10;60.70;;;;;;5052178;28;20436;-76
2023/05/27 08:26:12;;;;;;;10.67;7.03;;;22.10;60.70;;;;;;5061346;28;20479;-75
2023/05/27 08:28:46;;;;;;;8.67;5.70;;;22.30;58.60;;;;;;5061969;28;20450;-76
2023/05/27 08:31:13;;;;;;;13.90;6.50;;;22.40;59.90;;;;;;5069721;28;20436;-77
2023/05/27 08:33:45;;;;;;;12.60;6.80;;;22.50;59.00;;;;;;5069066;28;20440;-77
2023/05/27 08:36:17;;;;;;;12.20;6.83;;;22.60;59.40;;;;;;5069638;28;20444;-77
2023/05/27 08:38:44;;;;;;;9.33;5.73;;;22.70;59.10;;;;;;5052612;28;20448;-77
2023/05/27 08:41:14;;;;;;;10.73;6.70;;;22.90;60.50;;;;;;5058636;28;20835;-76
2023/05/27 08:43:43;;;;;;;10.50;6.47;;;23.10;58.90;;;;;;5068925;28;20443;-79
2023/05/27 08:46:14;;;;;;;13.57;6.33;;;23.20;57.40;;;;;;5068711;28;20479;-76
2023/05/27 08:48:42;;;;;;;10.47;5.90;;;23.30;55.80;;;;;;5068699;28;20992;-77
2023/05/27 08:51:11;;;;;;;8.00;5.47;;;23.30;56.90;;;;;;5070361;28;20509;-76
2023/05/27 08:53:38;;;;;;;9.00;6.27;;;23.40;57.20;;;;;;5066623;28;20477;-76
2023/05/27 08:56:07;;;;;;;9.00;6.60;;;23.60;56.00;;;;;;5060259;28;20948;-78
2023/05/27 08:58:35;;;;;;;9.10;5.83;;;23.60;56.00;;;;;;5059578;28;20445;-78
2023/05/27 09:01:05;;;;;;;8.53;5.60;;;23.80;55.40;;;;;;5052557;28;20826;-77
2023/05/27 09:03:32;;;;;;;9.10;5.87;;;23.80;54.20;;;;;;5052738;28;20480;-77
2023/05/27 09:06:01;;;;;;;8.07;5.97;;;23.90;54.40;;;;;;5066882;28;20928;-77
2023/05/27 09:08:28;;;;;;;10.50;5.07;;;24.00;54.50;;;;;;5070192;28;20498;-77
2023/05/27 09:10:55;;;;;;;10.87;5.93;;;24.10;55.30;;;;;;5056838;28;20476;-76
2023/05/27 09:13:29;;;;;;;12.63;6.63;;;24.20;55.10;;;;;;5069682;28;20463;-77
2023/05/27 09:16:01;;;;;;;13.23;6.90;;;24.40;54.90;;;;;;5069233;28;20440;-77
2023/05/27 09:18:31;;;;;;;10.00;5.90;;;24.50;53.40;;;;;;5068598;28;20438;-78
2023/05/27 09:20:59;;;;;;;11.67;5.63;;;24.70;53.90;;;;;;5050112;28;20448;-78
2023/05/27 09:23:28;;;;;;;10.63;5.70;;;24.70;50.90;;;;;;5055193;28;20521;-78
2023/05/27 09:25:55;;;;;;;10.40;5.90;;;24.80;52.50;;;;;;5070535;28;20443;-77
2023/05/27 09:28:23;;;;;;;11.40;6.10;;;24.90;52.70;;;;;;5062979;28;20532;-77
2023/05/27 09:31:02;;;;;;;9.73;5.90;;;25.00;51.50;;;;;;5067777;28;20449;-77
2023/05/27 09:33:33;;;;;;;10.87;6.63;;;24.90;49.40;;;;;;5058598;28;20475;-78
2023/05/27 09:36:02;;;;;;;9.40;6.33;;;24.90;51.70;;;;;;5072008;28;20541;-77
2023/05/27 09:38:30;;;;;;;13.87;6.00;;;25.00;52.10;;;;;;5060053;28;20489;-79
2023/05/27 09:40:58;;;;;;;8.70;5.87;;;25.20;50.60;;;;;;5057876;28;20432;-77
2023/05/27 09:43:27;;;;;;;10.30;5.50;;;25.30;51.50;;;;;;5070785;28;20449;-78
2023/05/27 09:46:01;;;;;;;12.63;6.33;;;25.50;50.70;;;;;;5072012;28;20436;-78
2023/05/27 09:48:32;;;;;;;8.53;5.97;;;25.50;50.50;;;;;;5055832;28;20479;-78
2023/05/27 09:51:00;;;;;;;9.23;6.40;;;25.60;48.80;;;;;;5053788;28;20502;-77
2023/05/27 09:53:30;;;;;;;11.70;5.03;;;25.70;48.80;;;;;;5058865;28;20527;-78
2023/05/27 09:55:58;;;;;;;8.77;5.27;;;25.80;48.60;;;;;;5056842;28;20467;-79
2023/05/27 09:58:30;;;;;;;8.33;5.33;;;25.80;47.60;;;;;;5060321;28;20837;-79
2023/05/27 10:00:59;;;;;;;9.50;6.27;;;25.80;46.90;;;;;;5065715;28;20461;-77
2023/05/27 10:03:32;;;;;;;9.53;6.00;;;25.80;48.60;;;;;;5060424;28;20507;-77
2023/05/27 10:06:01;;;;;;;8.47;5.10;;;25.90;49.30;;;;;;5063924;28;20790;-78
2023/05/27 10:08:28;;;;;;;7.67;5.03;;;26.00;47.70;;;;;;5060465;28;20488;-79
2023/05/27 10:10:56;;;;;;;8.83;4.90;;;26.10;48.00;;;;;;5067627;28;20440;-79
2023/05/27 10:13:26;;;;;;;9.20;5.90;;;26.10;46.50;;;;;;5067285;28;20451;-78
2023/05/27 10:15:53;;;;;;;12.53;5.80;;;26.10;45.10;;;;;;5062710;28;20788;-81
2023/05/27 10:18:25;;;;;;;8.73;6.20;;;26.00;44.90;;;;;;5065969;28;20471;-78
2023/05/27 10:20:53;;;;;;;9.70;4.70;;;25.90;46.20;;;;;;5063810;28;20503;-81
2023/05/27 10:23:22;;;;;;;10.60;5.63;;;26.00;46.40;;;;;;5064328;28;20459;-82
2023/05/27 10:25:51;;;;;;;10.40;5.10;;;26.00;46.90;;;;;;5065869;28;20914;-80
2023/05/27 10:28:28;;;;;;;12.03;5.57;;;26.10;46.10;;;;;;5061602;28;20487;-79
2023/05/27 10:31:05;;;;;;;7.87;5.13;;;26.10;47.00;;;;;;5067937;28;20435;-78
2023/05/27 10:33:35;;;;;;;9.67;5.80;;;26.20;45.40;;;;;;5062253;28;20846;-78
2023/05/27 10:36:13;;;;;;;15.03;5.70;;;26.20;45.60;;;;;;5064126;28;20444;-77
2023/05/27 10:38:43;;;;;;;8.00;5.50;;;26.20;44.00;;;;;;5066433;28;20516;-77
2023/05/27 10:41:12;;;;;;;8.67;6.07;;;26.20;43.80;;;;;;5066547;28;20448;-78
2023/05/27 10:43:39;;;;;;;10.50;6.57;;;26.30;44.60;;;;;;5063076;28;20440;-78
2023/05/27 10:46:09;;;;;;;8.53;6.00;;;26.30;43.90;;;;;;5059835;28;20474;-78
2023/05/27 10:48:39;;;;;;;10.17;5.20;;;26.30;43.00;;;;;;5063893;28;21403;-81
2023/05/27 10:51:07;;;;;;;5.80;5.10;;;26.30;43.20;;;;;;5063822;28;20946;-79
2023/05/27 10:53:38;;;;;;;10.40;6.50;;;26.30;44.20;;;;;;5067954;28;21583;-78
2023/05/27 10:56:06;;;;;;;13.60;5.90;;;26.30;42.90;;;;;;5065466;28;20447;-77
2023/05/27 10:58:36;;;;;;;10.30;5.43;;;26.30;44.10;;;;;;5060779;28;20523;-79
2023/05/27 11:01:11;;;;;;;10.37;5.67;;;26.40;43.90;;;;;;5060278;28;20445;-76
2023/05/27 11:03:44;;;;;;;7.93;4.93;;;26.40;44.40;;;;;;5061846;28;20868;-78
2023/05/27 11:06:12;;;;;;;12.63;6.37;;;26.40;44.30;;;;;;5062750;28;20830;-77
2023/05/27 11:08:42;;;;;;;9.90;5.40;;;26.50;43.10;;;;;;5061328;28;20486;-75
2023/05/27 11:11:11;;;;;;;6.73;5.03;;;26.50;43.60;;;;;;5067022;28;20444;-79
2023/05/27 11:13:42;;;;;;;11.10;5.70;;;26.50;41.60;;;;;;5064083;28;20439;-77
2023/05/27 11:16:12;;;;;;;6.80;5.40;;;26.40;41.70;;;;;;5068038;28;20800;-74
2023/05/27 11:18:41;;;;;;;7.70;5.50;;;26.40;42.20;;;;;;5062227;28;20444;-77
2023/05/27 11:21:10;;;;;;;7.03;5.00;;;26.50;41.30;;;;;;5061847;28;20437;-78
2023/05/27 11:23:40;;;;;;;7.10;5.27;;;26.40;42.20;;;;;;5060625;28;20827;-78
2023/05/27 11:26:19;;;;;;;9.50;5.87;;;26.50;43.40;;;;;;5062354;28;20494;-78
2023/05/27 11:28:48;;;;;;;10.87;6.00;;;26.60;43.20;;;;;;5061841;28;20488;-77
2023/05/27 11:31:16;;;;;;;8.97;5.90;;;26.80;43.70;;;;;;5063480;28;20853;-77
2023/05/27 11:33:45;;;;;;;9.43;5.63;;;26.80;43.10;;;;;;5064061;28;20471;-78
2023/05/27 11:36:14;;;;;;;8.30;7.03;;;26.90;43.40;;;;;;5064923;28;20433;-78
2023/05/27 11:38:52;;;;;;;9.23;5.27;;;27.00;42.10;;;;;;5060447;28;20838;-77
2023/05/27 11:41:22;;;;;;;10.60;5.77;;;27.00;43.90;;;;;;5064708;28;20858;-74
2023/05/27 11:43:57;;;;;;;8.60;5.43;;;27.00;41.30;;;;;;5062108;28;20451;-76
2023/05/27 11:46:25;;;;;;;8.47;6.03;;;27.00;40.70;;;;;;5062619;28;20456;-80
2023/05/27 11:48:54;;;;;;;11.37;5.50;;;26.90;40.90;;;;;;5064608;28;20486;-80
2023/05/27 11:51:29;;;;;;;8.67;5.50;;;26.80;40.70;;;;;;5060995;28;20444;-78
2023/05/27 11:53:57;;;;;;;6.37;5.03;;;26.80;42.10;;;;;;5061610;28;20454;-78
2023/05/27 11:56:26;;;;;;;7.73;5.37;;;26.90;41.40;;;;;;5064910;28;20440;-78
2023/05/27 11:58:53;;;;;;;9.83;5.10;;;26.80;40.10;;;;;;5061421;28;20448;-78
2023/05/27 12:01:21;;;;;;;8.80;5.03;;;26.80;41.50;;;;;;5060441;28;20456;-77
2023/05/27 12:03:48;;;;;;;9.37;6.77;;;26.80;41.30;;;;;;5063972;28;20450;-78
2023/05/27 12:06:15;;;;;;;13.63;5.10;;;26.80;41.10;;;;;;5063171;28;20532;-77
2023/05/27 12:08:43;;;;;;;8.80;4.97;;;26.80;40.80;;;;;;5058215;28;20487;-76
2023/05/27 12:11:10;;;;;;;10.07;5.27;;;26.80;41.60;;;;;;5060498;28;20432;-76
2023/05/27 12:13:40;;;;;;;9.87;5.67;;;26.80;40.50;;;;;;5064142;28;20452;-79
2023/05/27 12:16:07;;;;;;;8.87;4.90;;;26.70;41.90;;;;;;5060776;28;20529;-76
2023/05/27 12:18:35;;;;;;;8.03;6.03;;;26.70;40.30;;;;;;5061209;28;20491;-79
2023/05/27 12:21:02;;;;;;;9.13;4.90;;;26.60;40.20;;;;;;5062962;28;20545;-78
2023/05/27 12:23:29;;;;;;;8.57;5.40;;;26.60;41.90;;;;;;5061631;28;20479;-77
2023/05/27 12:25:58;;;;;;;8.37;5.80;;;26.60;41.30;;;;;;5063485;28;20452;-77
2023/05/27 12:28:25;;;;;;;11.23;7.40;;;26.60;41.00;;;;;;5058274;28;20495;-76
2023/05/27 12:30:55;;;;;;;7.70;5.07;;;26.60;41.40;;;;;;5063608;28;20475;-73
2023/05/27 12:33:24;;;;;;;8.07;5.70;;;26.60;43.10;;;;;;5062916;28;20825;-77
2023/05/27 12:35:51;;;;;;;9.23;5.63;;;26.60;42.00;;;;;;5059616;28;20438;-78
2023/05/27 12:38:18;;;;;;;7.50;5.53;;;26.60;41.40;;;;;;5062942;28;20931;-78
2023/05/27 12:40:45;;;;;;;9.97;5.97;;;26.60;41.40;;;;;;5061258;28;20455;-77
2023/05/27 12:43:13;;;;;;;12.27;5.67;;;26.60;41.10;;;;;;5060212;28;20449;-76
2023/05/27 12:45:40;;;;;;;7.77;5.00;;;26.50;41.80;;;;;;5062532;28;20443;-77